createdAt,value
2022-11-05T00:00:50.293Z,24.00
2022-11-05T00:03:39.297Z,24.00
2022-11-05T00:06:29.947Z,24.10
2022-11-05T00:09:18.702Z,24.10
2022-11-05T00:12:07.185Z,24.20
2022-11-05T00:14:55.810Z,24.20
2022-11-05T00:17:26.751Z,24.20
2022-11-05T00:19:57.639Z,24.20
2022-11-05T00:22:46.345Z,24.30
2022-11-05T00:25:20.558Z,24.30
2022-11-05T00:27:54.104Z,24.30
2022-11-05T00:30:28.827Z,24.40
2022-11-05T00:33:04.546Z,24.40
2022-11-05T00:35:35.377Z,24.40
2022-11-05T00:38:09.999Z,24.40
2022-11-05T00:40:41.166Z,24.50
2022-11-05T00:43:29.567Z,24.50
2022-11-05T00:46:00.665Z,24.50
2022-11-05T00:48:48.961Z,24.60
2022-11-05T00:51:19.878Z,24.70
2022-11-05T00:53:50.788Z,24.80
2022-11-05T00:56:21.615Z,24.90
2022-11-05T00:58:52.880Z,25.00
2022-11-05T01:01:23.849Z,25.00
2022-11-05T01:03:54.761Z,25.10
2022-11-05T01:06:26.326Z,25.10
2022-11-05T01:08:58.399Z,25.20
2022-11-05T01:11:35.382Z,25.30
2022-11-05T01:14:08.875Z,25.30
2022-11-05T01:16:40.708Z,25.30
2022-11-05T01:19:12.842Z,25.30
2022-11-05T01:21:43.689Z,25.40
2022-11-05T01:24:14.568Z,25.40
2022-11-05T01:26:47.401Z,25.40
2022-11-05T01:29:18.181Z,25.50
2022-11-05T01:31:49.516Z,25.50
2022-11-05T01:34:20.419Z,25.50
2022-11-05T01:36:51.470Z,25.60
2022-11-05T01:39:25.272Z,25.60
2022-11-05T01:41:56.211Z,25.60
2022-11-05T01:44:55.333Z,25.60
2022-11-05T01:47:43.521Z,25.70
2022-11-05T01:50:48.473Z,25.70
2022-11-05T01:53:43.037Z,25.70
2022-11-05T01:56:29.371Z,25.70
2022-11-05T01:59:08.685Z,25.80
2022-11-05T02:01:40.145Z,25.80
2022-11-05T02:04:15.371Z,25.90
2022-11-05T02:06:49.087Z,25.90
2022-11-05T02:09:25.610Z,26.00
2022-11-05T02:11:56.567Z,26.10
2022-11-05T02:14:30.760Z,26.10
2022-11-05T02:17:13.155Z,26.20
2022-11-05T02:20:01.565Z,26.20
2022-11-05T02:22:59.057Z,26.30
2022-11-05T02:25:38.033Z,26.30
2022-11-05T02:28:32.582Z,26.40
2022-11-05T02:31:08.881Z,26.50
2022-11-05T02:33:45.272Z,26.50
2022-11-05T02:36:35.671Z,26.50
2022-11-05T02:39:25.233Z,26.60
2022-11-05T02:42:07.678Z,26.70
2022-11-05T02:44:56.436Z,26.80
2022-11-05T02:47:49.565Z,26.80
2022-11-05T02:50:25.976Z,26.90
2022-11-05T02:53:14.585Z,27.00
2022-11-05T02:55:58.061Z,27.00
2022-11-05T02:58:31.615Z,27.10
2022-11-05T03:01:03.900Z,27.20
2022-11-05T03:03:40.126Z,27.20
2022-11-05T03:06:46.363Z,27.30
2022-11-05T03:09:25.418Z,27.40
2022-11-05T03:12:14.079Z,27.50
2022-11-05T03:15:16.386Z,27.60
2022-11-05T03:18:22.506Z,27.70
2022-11-05T03:21:02.724Z,27.80
2022-11-05T03:23:51.810Z,27.90
2022-11-05T03:26:37.291Z,28.00
2022-11-05T03:29:10.725Z,28.10
2022-11-05T03:31:43.453Z,28.20
2022-11-05T03:34:16.656Z,28.20
2022-11-05T03:36:50.023Z,28.30
2022-11-05T03:39:23.390Z,28.30
2022-11-05T03:41:56.313Z,28.40
2022-11-05T03:44:32.421Z,28.50
2022-11-05T03:47:11.336Z,28.60
2022-11-05T03:49:45.031Z,28.70
2022-11-05T03:52:24.866Z,28.80
2022-11-05T03:54:56.108Z,28.90
2022-11-05T03:57:35.252Z,29.00
2022-11-05T04:00:11.509Z,29.10
2022-11-05T04:02:42.689Z,29.20
2022-11-05T04:05:14.173Z,29.30
2022-11-05T04:08:04.389Z,29.30
2022-11-05T04:10:48.666Z,29.40
2022-11-05T04:13:29.049Z,29.50
2022-11-05T04:16:17.159Z,29.50
2022-11-05T04:18:47.995Z,29.50
2022-11-05T04:21:36.496Z,29.60
2022-11-05T04:24:10.984Z,29.70
2022-11-05T04:26:44.755Z,29.80
2022-11-05T04:29:33.520Z,29.80
2022-11-05T04:32:04.352Z,29.90
2022-11-05T04:34:35.403Z,30.00
2022-11-05T04:37:06.217Z,30.10
2022-11-05T04:39:37.111Z,30.20
2022-11-05T04:42:10.068Z,30.20
2022-11-05T04:44:41.217Z,30.30
2022-11-05T04:47:15.711Z,30.30
2022-11-05T04:49:48.062Z,30.40
2022-11-05T04:52:19.140Z,30.40
2022-11-05T04:54:50.096Z,30.40
2022-11-05T04:57:21.029Z,30.50
2022-11-05T04:59:53.193Z,30.50
2022-11-05T05:02:24.663Z,30.50
2022-11-05T05:04:55.665Z,30.60
2022-11-05T05:07:27.185Z,30.70
2022-11-05T05:09:58.468Z,30.70
2022-11-05T05:12:29.433Z,30.70
2022-11-05T05:15:00.385Z,30.80
2022-11-05T05:17:31.317Z,30.80
2022-11-05T05:20:19.659Z,30.90
2022-11-05T05:22:57.761Z,30.90
2022-11-05T05:25:28.788Z,30.90
2022-11-05T05:28:02.410Z,30.80
2022-11-05T05:30:35.047Z,30.80
2022-11-05T05:33:06.031Z,30.80
2022-11-05T05:35:36.949Z,30.80
2022-11-05T05:38:11.555Z,30.90
2022-11-05T05:40:46.654Z,30.90
2022-11-05T05:43:17.637Z,30.90
2022-11-05T05:45:48.499Z,31.00
2022-11-05T05:48:22.584Z,31.00
2022-11-05T05:50:53.563Z,30.80
2022-11-05T05:53:24.573Z,30.80
2022-11-05T05:55:57.026Z,30.70
2022-11-05T05:58:29.812Z,30.80
2022-11-05T06:01:11.003Z,30.90
2022-11-05T06:03:41.795Z,30.90
2022-11-05T06:06:15.256Z,31.10
2022-11-05T06:08:46.085Z,31.10
2022-11-05T06:11:17.136Z,31.20
2022-11-05T06:13:47.928Z,31.20
2022-11-05T06:16:20.310Z,31.30
2022-11-05T06:19:00.745Z,31.30
2022-11-05T06:21:31.840Z,31.40
2022-11-05T06:24:03.851Z,31.40
2022-11-05T06:26:34.769Z,31.30
2022-11-05T06:29:05.687Z,31.30
2022-11-05T06:31:36.519Z,31.40
2022-11-05T06:34:07.428Z,31.60
2022-11-05T06:36:38.360Z,31.60
2022-11-05T06:39:10.558Z,31.70
2022-11-05T06:44:13.669Z,31.70
2022-11-05T06:46:48.358Z,31.70
2022-11-05T06:49:16.915Z,31.60
2022-11-05T06:51:47.724Z,31.60
2022-11-05T06:54:18.664Z,31.50
2022-11-05T06:56:49.499Z,31.50
2022-11-05T06:59:20.404Z,31.40
2022-11-05T07:01:51.476Z,31.40
2022-11-05T07:04:22.280Z,31.30
2022-11-05T07:07:02.248Z,31.20
2022-11-05T07:09:33.123Z,31.10
2022-11-05T07:12:04.249Z,31.10
2022-11-05T07:14:35.171Z,31.20
2022-11-05T07:17:06.019Z,31.20
2022-11-05T07:19:38.277Z,31.20
2022-11-05T07:22:09.086Z,31.20
2022-11-05T07:24:39.964Z,31.30
2022-11-05T07:27:10.870Z,31.20
2022-11-05T07:29:43.666Z,31.20
2022-11-05T07:32:14.704Z,31.10
2022-11-05T07:34:45.524Z,31.00
2022-11-05T07:37:18.035Z,30.90
2022-11-05T07:39:50.087Z,30.80
2022-11-05T07:42:20.919Z,30.80
2022-11-05T07:44:51.717Z,30.80
2022-11-05T07:47:22.519Z,30.80
2022-11-05T07:49:53.339Z,30.80
2022-11-05T07:52:24.289Z,30.90
2022-11-05T07:54:55.126Z,30.90
2022-11-05T07:57:26.867Z,30.90
2022-11-05T08:00:00.292Z,30.90
2022-11-05T08:02:32.485Z,31.00
2022-11-05T08:05:03.492Z,31.00
2022-11-05T08:07:35.453Z,31.00
2022-11-05T08:10:09.399Z,30.90
2022-11-05T08:12:40.311Z,30.90
2022-11-05T08:15:12.161Z,30.80
2022-11-05T08:17:43.277Z,30.80
2022-11-05T08:20:15.218Z,30.70
2022-11-05T08:22:49.809Z,30.70
2022-11-05T08:25:20.806Z,30.80
2022-11-05T08:27:53.130Z,30.70
2022-11-05T08:30:24.106Z,30.80
2022-11-05T08:32:56.722Z,30.80
2022-11-05T08:35:27.860Z,30.70
2022-11-05T08:38:04.008Z,30.70
2022-11-05T08:40:36.924Z,30.70
2022-11-05T08:43:09.755Z,30.70
2022-11-05T08:45:41.551Z,30.80
2022-11-05T08:48:17.497Z,30.80
2022-11-05T08:50:49.697Z,30.80
2022-11-05T08:53:20.816Z,30.70
2022-11-05T08:59:10.442Z,30.80
2022-11-05T09:01:41.443Z,30.80
2022-11-05T09:04:12.614Z,30.70
2022-11-05T09:06:43.586Z,30.70
2022-11-05T09:09:14.413Z,30.60
2022-11-05T09:12:10.408Z,30.60
2022-11-05T09:14:18.401Z,30.60
2022-11-05T09:17:01.736Z,30.60
2022-11-05T09:19:36.609Z,30.60
2022-11-05T09:22:05.093Z,30.60
2022-11-05T09:24:35.887Z,30.60
2022-11-05T09:27:06.802Z,30.50
2022-11-05T09:29:37.781Z,30.50
2022-11-05T09:32:08.923Z,30.50
2022-11-05T09:34:40.850Z,30.40
2022-11-05T09:37:11.655Z,30.30
2022-11-05T09:39:42.601Z,30.30
2022-11-05T09:42:16.208Z,30.30
2022-11-05T09:44:52.109Z,30.20
2022-11-05T09:47:28.101Z,30.20
2022-11-05T09:50:01.290Z,30.10
2022-11-05T09:52:34.231Z,30.10
2022-11-05T09:55:08.250Z,30.10
2022-11-05T09:57:47.892Z,30.10
2022-11-05T10:00:21.144Z,30.00
2022-11-05T10:02:54.287Z,30.00
2022-11-05T10:05:27.212Z,30.00
2022-11-05T10:08:01.161Z,30.00
2022-11-05T10:10:41.327Z,30.00
2022-11-05T10:13:30.293Z,30.10
2022-11-05T10:16:06.771Z,30.10
2022-11-05T10:18:46.094Z,30.00
2022-11-05T10:21:37.590Z,30.00
2022-11-05T10:23:54.020Z,30.00
2022-11-05T10:26:28.328Z,29.90
2022-11-05T10:28:59.577Z,29.90
2022-11-05T10:31:35.385Z,29.90
2022-11-05T10:34:08.111Z,29.90
2022-11-05T10:36:40.365Z,29.80
2022-11-05T10:39:16.436Z,29.80
2022-11-05T10:42:06.123Z,29.70
2022-11-05T10:44:57.465Z,29.70
2022-11-05T10:47:57.854Z,29.70
2022-11-05T10:50:30.643Z,29.60
2022-11-05T10:53:04.153Z,29.60
2022-11-05T10:55:52.306Z,29.50
2022-11-05T10:58:26.616Z,29.50
2022-11-05T11:01:00.063Z,29.50
2022-11-05T11:03:52.348Z,29.40
2022-11-05T11:06:30.915Z,29.40
2022-11-05T11:09:07.053Z,29.40
2022-11-05T11:11:45.504Z,29.40
2022-11-05T11:14:19.148Z,29.40
2022-11-05T11:16:59.289Z,29.40
2022-11-05T11:19:40.990Z,29.40
2022-11-05T11:22:16.930Z,29.50
2022-11-05T11:24:50.568Z,29.40
2022-11-05T11:27:30.728Z,29.40
2022-11-05T11:30:03.806Z,29.40
2022-11-05T11:32:37.127Z,29.40
2022-11-05T11:35:10.278Z,29.40
2022-11-05T11:37:43.202Z,29.40
2022-11-05T11:40:16.840Z,29.30
2022-11-05T11:42:53.259Z,29.30
2022-11-05T11:45:47.961Z,29.30
2022-11-05T11:48:30.216Z,29.30
2022-11-05T11:51:03.189Z,29.20
2022-11-05T11:53:38.237Z,29.20
2022-11-05T11:56:23.299Z,29.20
2022-11-05T11:58:58.885Z,29.20
2022-11-05T12:01:53.587Z,29.10
2022-11-05T12:04:56.974Z,29.10
2022-11-05T12:07:33.140Z,29.10
2022-11-05T12:10:31.860Z,29.10
2022-11-05T12:13:23.055Z,29.10
2022-11-05T12:15:56.897Z,29.00
2022-11-05T12:18:38.450Z,29.00
2022-11-05T12:21:11.945Z,29.00
2022-11-05T12:24:04.991Z,29.00
2022-11-05T12:26:56.683Z,29.00
2022-11-05T12:29:42.400Z,28.90
2022-11-05T12:32:33.927Z,28.90
2022-11-05T12:35:16.564Z,28.90
2022-11-05T12:38:12.250Z,28.90
2022-11-05T12:40:48.590Z,28.90
2022-11-05T12:43:24.506Z,28.90
2022-11-05T12:46:29.461Z,28.90
2022-11-05T12:49:23.836Z,28.90
2022-11-05T12:52:06.999Z,28.90
2022-11-05T12:55:18.138Z,28.80
2022-11-05T12:57:52.130Z,28.80
2022-11-05T13:00:25.280Z,28.80
2022-11-05T13:02:58.613Z,28.70
2022-11-05T13:05:44.077Z,28.70
2022-11-05T13:08:32.531Z,28.70
2022-11-05T13:11:05.903Z,28.60
2022-11-05T13:13:45.143Z,28.70
2022-11-05T13:16:33.774Z,28.60
2022-11-05T13:19:16.234Z,28.60
2022-11-05T13:21:49.578Z,28.60
2022-11-05T13:24:23.014Z,28.60
2022-11-05T13:27:05.534Z,28.60
2022-11-05T13:29:48.025Z,28.50
2022-11-05T13:32:39.664Z,28.60
2022-11-05T13:35:15.369Z,28.50
2022-11-05T13:38:05.819Z,28.50
2022-11-05T13:40:48.139Z,28.50
2022-11-05T13:43:40.757Z,28.40
2022-11-05T13:46:20.597Z,28.40
2022-11-05T13:48:59.548Z,28.40
2022-11-05T13:51:44.614Z,28.40
2022-11-05T13:54:34.332Z,28.30
2022-11-05T13:57:37.718Z,28.30
2022-11-05T14:00:30.433Z,28.30
2022-11-05T14:03:03.979Z,28.30
2022-11-05T14:05:42.952Z,28.20
2022-11-05T14:08:32.277Z,28.20
2022-11-05T14:14:40.879Z,28.20
2022-11-05T14:17:15.177Z,28.20
2022-11-05T14:20:15.048Z,28.20
2022-11-05T14:22:47.258Z,28.10
2022-11-05T14:25:30.499Z,28.10
2022-11-05T14:28:01.449Z,28.10
2022-11-05T14:30:46.994Z,28.10
2022-11-05T14:33:33.053Z,28.10
2022-11-05T14:36:25.102Z,28.10
2022-11-05T14:39:04.495Z,28.00
2022-11-05T14:41:44.135Z,28.00
2022-11-05T14:44:15.306Z,28.00
2022-11-05T14:46:49.500Z,27.90
2022-11-05T14:49:31.660Z,27.90
2022-11-05T14:52:24.711Z,27.90
2022-11-05T14:55:00.012Z,27.80
2022-11-05T14:57:52.456Z,27.80
2022-11-05T15:00:37.099Z,27.80
2022-11-05T15:03:30.222Z,27.80
2022-11-05T15:06:15.139Z,27.70
2022-11-05T15:08:57.786Z,27.70
2022-11-05T15:11:39.723Z,27.70
2022-11-05T15:14:38.665Z,27.70
2022-11-05T15:17:31.234Z,27.70
2022-11-05T15:20:11.038Z,27.60
2022-11-05T15:22:55.288Z,27.60
2022-11-05T15:25:34.766Z,27.50
2022-11-05T15:28:16.890Z,27.50
2022-11-05T15:31:02.437Z,27.40
2022-11-05T15:33:34.397Z,27.40
2022-11-05T15:36:24.142Z,27.40
2022-11-05T15:39:22.853Z,27.40
2022-11-05T15:41:31.709Z,27.40
2022-11-05T15:44:04.081Z,27.40
2022-11-05T15:46:36.902Z,27.40
2022-11-05T15:49:16.518Z,27.40
2022-11-05T15:51:49.244Z,27.30
2022-11-05T15:54:30.388Z,27.30
2022-11-05T15:56:57.711Z,27.30
2022-11-05T15:59:31.311Z,27.30
2022-11-05T16:02:04.782Z,27.30
2022-11-05T16:04:37.334Z,27.20
2022-11-05T16:07:20.295Z,27.20
2022-11-05T16:09:57.160Z,27.10
2022-11-05T16:12:41.775Z,27.10
2022-11-05T16:15:18.060Z,27.10
2022-11-05T16:17:58.243Z,27.00
2022-11-05T16:20:39.842Z,27.00
2022-11-05T16:23:28.417Z,27.00
2022-11-05T16:26:06.720Z,26.90
2022-11-05T16:28:37.894Z,26.90
2022-11-05T16:31:18.650Z,26.80
2022-11-05T16:33:50.985Z,26.80
2022-11-05T16:36:25.713Z,26.70
2022-11-05T16:38:56.690Z,26.70
2022-11-05T16:41:29.475Z,26.60
2022-11-05T16:44:06.215Z,26.60
2022-11-05T16:46:36.187Z,26.60
2022-11-05T16:49:07.123Z,26.50
2022-11-05T16:51:38.112Z,26.50
2022-11-05T16:54:10.331Z,26.50
2022-11-05T16:56:43.550Z,26.50
2022-11-05T16:59:15.922Z,26.50
2022-11-05T17:01:50.356Z,26.40
2022-11-05T17:04:25.759Z,26.40
2022-11-05T17:06:58.796Z,26.30
2022-11-05T17:09:31.488Z,26.30
2022-11-05T17:12:05.468Z,26.30
2022-11-05T17:14:37.690Z,26.20
2022-11-05T17:17:09.718Z,26.20
2022-11-05T17:19:44.495Z,26.20
2022-11-05T17:22:15.307Z,26.10
2022-11-05T17:24:46.270Z,26.10
2022-11-05T17:27:17.412Z,26.10
2022-11-05T17:29:48.241Z,26.00
2022-11-05T17:32:19.249Z,26.00
2022-11-05T17:34:50.061Z,25.90
2022-11-05T17:37:21.066Z,25.90
2022-11-05T17:39:51.977Z,25.90
2022-11-05T17:42:22.800Z,25.80
2022-11-05T17:44:53.682Z,25.80
2022-11-05T17:47:27.958Z,25.70
2022-11-05T17:49:58.945Z,25.70
2022-11-05T17:52:30.990Z,25.70
2022-11-05T17:55:01.967Z,25.70
2022-11-05T17:57:32.789Z,25.70
2022-11-05T18:00:05.903Z,25.60
2022-11-05T18:02:47.339Z,25.60
2022-11-05T18:05:18.034Z,25.60
2022-11-05T18:07:50.791Z,25.50
2022-11-05T18:10:25.625Z,25.50
2022-11-05T18:12:59.385Z,25.50
2022-11-05T18:15:30.316Z,25.50
2022-11-05T18:18:01.206Z,25.40
2022-11-05T18:20:32.269Z,25.40
2022-11-05T18:23:03.225Z,25.40
2022-11-05T18:25:34.256Z,25.40
2022-11-05T18:28:05.742Z,25.30
2022-11-05T18:30:39.974Z,25.30
2022-11-05T18:33:14.086Z,25.30
2022-11-05T18:35:48.468Z,25.30
2022-11-05T18:38:19.402Z,25.20
2022-11-05T18:40:50.233Z,25.30
2022-11-05T18:43:21.056Z,25.30
2022-11-05T18:45:54.438Z,25.20
2022-11-05T18:48:26.571Z,25.20
2022-11-05T18:51:01.708Z,25.20
2022-11-05T18:53:30.355Z,25.10
2022-11-05T18:56:01.271Z,25.20
2022-11-05T18:58:35.286Z,25.20
2022-11-05T19:01:08.186Z,25.10
2022-11-05T19:03:39.035Z,25.10
2022-11-05T19:06:13.026Z,25.10
2022-11-05T19:08:44.161Z,25.00
2022-11-05T19:11:17.676Z,25.00
2022-11-05T19:13:48.623Z,25.00
2022-11-05T19:16:22.005Z,25.00
2022-11-05T19:18:54.275Z,24.90
2022-11-05T19:21:27.235Z,24.90
2022-11-05T19:24:05.657Z,24.90
2022-11-05T19:26:41.987Z,24.80
2022-11-05T19:29:16.353Z,24.90
2022-11-05T19:31:50.459Z,24.80
2022-11-05T19:34:21.733Z,24.80
2022-11-05T19:36:52.525Z,24.80
2022-11-05T19:39:23.629Z,24.80
2022-11-05T19:42:00.336Z,24.80
2022-11-05T19:44:28.632Z,24.80
2022-11-05T19:46:59.673Z,24.80
2022-11-05T19:49:31.505Z,24.70
2022-11-05T19:52:02.723Z,24.70
2022-11-05T19:54:33.529Z,24.70
2022-11-05T19:57:07.019Z,24.90
2022-11-05T19:59:37.973Z,24.70
2022-11-05T20:02:13.330Z,24.60
2022-11-05T20:04:43.913Z,24.60
2022-11-05T20:07:15.894Z,24.60
2022-11-05T20:09:46.690Z,24.60
2022-11-05T20:12:17.825Z,24.60
2022-11-05T20:14:48.624Z,24.60
2022-11-05T20:17:19.850Z,24.60
2022-11-05T20:19:50.791Z,24.60
2022-11-05T20:22:21.658Z,24.60
2022-11-05T20:24:52.564Z,24.50
2022-11-05T20:27:24.123Z,24.50
2022-11-05T20:29:55.011Z,24.50
2022-11-05T20:32:25.836Z,24.50
2022-11-05T20:34:56.838Z,24.50
2022-11-05T20:37:27.842Z,24.50
2022-11-05T20:39:58.695Z,24.40
2022-11-05T20:42:29.596Z,24.40
2022-11-05T20:45:01.870Z,24.40
2022-11-05T20:47:32.661Z,24.40
2022-11-05T20:50:04.873Z,24.40
2022-11-05T20:52:36.797Z,24.40
2022-11-05T20:55:09.521Z,24.40
2022-11-05T20:57:40.608Z,24.40
2022-11-05T21:00:12.203Z,24.40
2022-11-05T21:02:46.545Z,24.40
2022-11-05T21:05:17.702Z,24.30
2022-11-05T21:07:48.720Z,24.30
2022-11-05T21:10:19.832Z,24.30
2022-11-05T21:12:50.736Z,24.30
2022-11-05T21:15:23.034Z,24.30
2022-11-05T21:17:54.325Z,24.20
2022-11-05T21:20:25.235Z,24.20
2022-11-05T21:22:56.597Z,24.20
2022-11-05T21:25:28.208Z,24.20
2022-11-05T21:28:01.495Z,24.20
2022-11-05T21:30:32.844Z,24.20
2022-11-05T21:33:04.440Z,24.20
2022-11-05T21:35:35.675Z,24.20
2022-11-05T21:38:07.553Z,24.20
2022-11-05T21:40:38.980Z,24.20
2022-11-05T21:43:10.170Z,24.20
2022-11-05T21:45:46.351Z,24.20
2022-11-05T21:48:17.163Z,24.20
2022-11-05T21:51:06.463Z,24.10
2022-11-05T21:53:54.723Z,24.10
2022-11-05T21:59:40.133Z,24.10
2022-11-05T22:02:13.688Z,24.10
2022-11-05T22:04:46.690Z,24.10
2022-11-05T22:07:20.307Z,24.10
2022-11-05T22:09:51.544Z,24.10
2022-11-05T22:12:22.697Z,24.10
2022-11-05T22:14:54.195Z,24.10
2022-11-05T22:17:25.805Z,24.10
2022-11-05T22:19:56.883Z,24.10
2022-11-05T22:22:27.694Z,24.10
2022-11-05T22:24:58.835Z,24.10
2022-11-05T22:27:30.737Z,24.10
2022-11-05T22:30:01.740Z,24.00
2022-11-05T22:32:35.236Z,24.00
2022-11-05T22:35:07.591Z,24.00
2022-11-05T22:37:38.547Z,24.00
2022-11-05T22:40:10.800Z,24.00
2022-11-05T22:42:41.780Z,24.00
2022-11-05T22:45:13.605Z,24.00
2022-11-05T22:47:47.430Z,23.90
2022-11-05T22:50:18.404Z,23.90
2022-11-05T22:52:49.645Z,23.90
2022-11-05T22:55:20.856Z,23.90
2022-11-05T22:57:51.756Z,23.90
2022-11-05T23:00:23.877Z,23.90
2022-11-05T23:02:55.403Z,23.90
2022-11-05T23:05:26.956Z,23.90
2022-11-05T23:08:15.749Z,23.80
2022-11-05T23:11:04.053Z,23.80
2022-11-05T23:13:35.176Z,23.70
2022-11-05T23:16:23.917Z,23.70
2022-11-05T23:19:12.724Z,23.70
2022-11-05T23:22:01.246Z,23.70
2022-11-05T23:24:32.051Z,23.60
2022-11-05T23:27:02.865Z,23.60
2022-11-05T23:29:33.666Z,23.60
2022-11-05T23:32:22.194Z,23.60
2022-11-05T23:34:54.149Z,23.50
2022-11-05T23:37:44.200Z,23.50
2022-11-05T23:40:24.058Z,23.50
2022-11-05T23:43:13.314Z,23.40
2022-11-05T23:46:02.203Z,23.40
2022-11-05T23:48:35.737Z,23.40
2022-11-05T23:51:09.180Z,23.40
2022-11-05T23:53:42.374Z,23.50
2022-11-05T23:56:17.997Z,23.40
2022-11-05T23:58:49.033Z,23.40
